Time;durP1;ratioP1;P1;durP2;ratioP2;P2;SDS_P1;SDS_P2;PMS_P1;PMS_P2;Temp;Humidity;BMP_temperature;BMP_pressure;BME280_temperature;BME280_humidity;BME280_pressure;Samples;Min_cycle;Max_cycle;Signal;HPM_P1;HPM_P2
2023/11/30 00:01:43;;;;;;;9.47;9.07;;;7.50;16.80;;;;;;5071100;28;20191;-56
2023/11/30 00:04:09;;;;;;;10.17;9.67;;;7.50;16.80;;;;;;5068629;28;20292;-56
2023/11/30 00:06:39;;;;;;;11.30;10.70;;;7.50;16.80;;;;;;5053067;28;20237;-55
2023/11/30 00:09:04;;;;;;;10.27;9.67;;;7.50;16.80;;;;;;5053806;28;20278;-55
2023/11/30 00:11:30;;;;;;;10.23;9.70;;;7.40;16.50;;;;;;5056922;28;20912;-53
2023/11/30 00:13:56;;;;;;;10.23;9.83;;;7.50;16.90;;;;;;5072977;28;20192;-57
2023/11/30 00:16:21;;;;;;;9.70;9.27;;;7.50;17.00;;;;;;5056873;28;20631;-56
2023/11/30 00:18:47;;;;;;;9.90;9.33;;;7.50;16.90;;;;;;5073255;28;20195;-56
2023/11/30 00:21:12;;;;;;;9.53;9.03;;;7.50;16.70;;;;;;5056941;28;20206;-55
2023/11/30 00:23:38;;;;;;;9.73;9.23;;;7.50;16.60;;;;;;5056484;28;20364;-55
2023/11/30 00:26:05;;;;;;;10.20;9.60;;;7.50;17.00;;;;;;5056629;28;20218;-56
2023/11/30 00:28:30;;;;;;;9.97;9.47;;;7.50;17.00;;;;;;5056321;28;20645;-56
2023/11/30 00:30:56;;;;;;;10.90;10.40;;;7.50;17.10;;;;;;5056805;28;20434;-56
2023/11/30 00:33:22;;;;;;;10.20;9.70;;;7.50;17.20;;;;;;5064784;28;20183;-55
2023/11/30 00:35:47;;;;;;;10.13;9.63;;;7.50;17.20;;;;;;5072877;28;20245;-57
2023/11/30 00:38:13;;;;;;;10.10;9.60;;;7.50;16.90;;;;;;5060900;28;20234;-55
2023/11/30 00:40:39;;;;;;;9.37;8.87;;;7.50;17.10;;;;;;5051783;28;20191;-56
2023/11/30 00:43:06;;;;;;;10.23;9.70;;;7.50;16.80;;;;;;5072892;28;20659;-53
2023/11/30 00:45:31;;;;;;;9.50;9.00;;;7.50;16.90;;;;;;5072566;28;20504;-57
2023/11/30 00:47:57;;;;;;;9.80;9.27;;;7.50;16.90;;;;;;5056193;28;21146;-55
2023/11/30 00:50:23;;;;;;;10.13;9.53;;;7.50;17.00;;;;;;5072753;28;20252;-56
2023/11/30 00:52:48;;;;;;;10.10;9.50;;;7.50;17.20;;;;;;5061621;28;20593;-56
2023/11/30 00:55:14;;;;;;;10.03;9.57;;;7.50;17.10;;;;;;5056051;28;20195;-56
2023/11/30 00:57:40;;;;;;;11.20;10.50;;;7.50;16.70;;;;;;5072673;28;20749;-56
2023/11/30 01:00:08;;;;;;;9.63;9.13;;;7.50;17.10;;;;;;5072225;28;20187;-56
2023/11/30 01:02:34;;;;;;;10.30;9.70;;;7.50;17.10;;;;;;5072531;28;20187;-56
2023/11/30 01:05:00;;;;;;;9.10;8.70;;;7.50;17.30;;;;;;5059382;28;20468;-53
2023/11/30 01:07:26;;;;;;;9.47;9.00;;;7.40;17.20;;;;;;5054548;28;20449;-57
2023/11/30 01:09:52;;;;;;;9.97;9.47;;;7.50;17.20;;;;;;5055739;28;20444;-54
2023/11/30 01:12:17;;;;;;;10.30;9.70;;;7.40;17.30;;;;;;5056069;28;20537;-57
2023/11/30 01:14:43;;;;;;;9.63;9.13;;;7.40;17.40;;;;;;5065086;28;20689;-56
2023/11/30 01:17:09;;;;;;;9.90;9.30;;;7.40;17.50;;;;;;5072585;28;20199;-56
2023/11/30 01:19:34;;;;;;;10.80;10.20;;;7.40;17.40;;;;;;5055234;28;20254;-57
2023/11/30 01:22:00;;;;;;;9.80;9.30;;;7.40;17.50;;;;;;5055439;28;20199;-56
2023/11/30 01:24:26;;;;;;;10.13;9.63;;;7.40;17.40;;;;;;5071180;28;20219;-55
2023/11/30 01:26:52;;;;;;;9.93;9.47;;;7.40;17.50;;;;;;5055180;28;22897;-56
2023/11/30 01:29:17;;;;;;;10.40;9.70;;;7.40;17.40;;;;;;5055542;28;20620;-57
2023/11/30 01:31:43;;;;;;;11.80;11.20;;;7.30;17.80;;;;;;5071917;28;20442;-56
2023/11/30 01:34:09;;;;;;;11.00;10.40;;;7.20;17.60;;;;;;5063594;28;20193;-56
2023/11/30 01:36:35;;;;;;;10.63;10.00;;;6.80;18.30;;;;;;5054529;28;20550;-56
2023/11/30 01:39:01;;;;;;;10.40;9.87;;;6.50;18.40;;;;;;5071973;28;20183;-57
2023/11/30 01:41:26;;;;;;;11.37;10.57;;;6.40;18.10;;;;;;5071915;28;20448;-56
2023/11/30 01:43:52;;;;;;;11.10;10.50;;;6.10;18.80;;;;;;5054767;28;20536;-56
2023/11/30 01:46:19;;;;;;;12.03;11.33;;;5.70;19.60;;;;;;5052347;28;20211;-55
2023/11/30 01:48:46;;;;;;;11.33;10.73;;;5.50;20.60;;;;;;5054997;28;20306;-55
2023/11/30 01:51:13;;;;;;;10.80;10.20;;;5.30;21.00;;;;;;5055163;28;20498;-53
2023/11/30 01:53:39;;;;;;;11.83;11.23;;;5.20;21.70;;;;;;5054853;28;20434;-56
2023/11/30 01:56:10;;;;;;;11.63;10.97;;;5.50;21.10;;;;;;5054754;28;20503;-54
2023/11/30 01:58:36;;;;;;;11.70;11.10;;;5.90;21.00;;;;;;5054746;28;20441;-55
2023/11/30 02:01:03;;;;;;;13.17;12.37;;;6.00;20.10;;;;;;5054901;28;20524;-55
2023/11/30 02:03:30;;;;;;;11.70;11.10;;;6.00;19.70;;;;;;5054935;28;21121;-55
2023/11/30 02:05:55;;;;;;;11.60;10.90;;;6.00;20.40;;;;;;5054344;28;20476;-56
2023/11/30 02:08:21;;;;;;;11.83;11.23;;;6.20;20.20;;;;;;5070603;28;20433;-56
2023/11/30 02:10:46;;;;;;;11.00;10.40;;;6.10;19.60;;;;;;5062935;28;20192;-56
2023/11/30 02:13:12;;;;;;;12.00;11.33;;;6.10;19.20;;;;;;5054703;28;20593;-56
2023/11/30 02:15:38;;;;;;;11.80;10.90;;;6.10;19.10;;;;;;5045671;28;20652;-56
2023/11/30 02:18:10;;;;;;;11.47;10.87;;;6.00;19.20;;;;;;5067663;28;20202;-55
2023/11/30 02:20:36;;;;;;;11.50;10.80;;;6.00;19.90;;;;;;5068534;28;20183;-55
2023/11/30 02:23:01;;;;;;;11.17;10.57;;;6.00;19.70;;;;;;5071130;28;20785;-53
2023/11/30 02:25:27;;;;;;;11.60;11.00;;;6.10;19.90;;;;;;5070745;28;20230;-56
2023/11/30 02:27:53;;;;;;;11.00;10.40;;;6.30;19.50;;;;;;5043740;28;20619;-55
2023/11/30 02:30:18;;;;;;;10.20;9.70;;;6.50;19.20;;;;;;5054262;28;20191;-56
2023/11/30 02:32:44;;;;;;;11.30;10.60;;;6.40;18.10;;;;;;5052240;28;20187;-55
2023/11/30 02:35:10;;;;;;;10.37;9.83;;;6.00;18.80;;;;;;5051773;28;20277;-54
2023/11/30 02:37:35;;;;;;;10.77;10.20;;;5.90;19.10;;;;;;5045977;28;20603;-56
2023/11/30 02:40:01;;;;;;;11.00;10.50;;;6.00;19.00;;;;;;5052133;28;20218;-56
2023/11/30 02:42:26;;;;;;;10.97;10.47;;;6.00;19.90;;;;;;5058195;28;20188;-56
2023/11/30 02:44:52;;;;;;;10.93;10.37;;;6.10;19.10;;;;;;5053588;28;20725;-55
2023/11/30 02:47:18;;;;;;;11.50;10.83;;;5.80;19.60;;;;;;5051826;28;20202;-56
2023/11/30 02:49:43;;;;;;;11.90;11.30;;;5.60;19.50;;;;;;5069357;28;20195;-56
2023/11/30 02:52:09;;;;;;;11.73;11.03;;;5.50;20.20;;;;;;5053871;28;20243;-56
2023/11/30 02:54:34;;;;;;;10.30;9.70;;;5.60;20.10;;;;;;5045312;28;20199;-56
2023/11/30 02:57:00;;;;;;;10.93;10.33;;;5.70;19.40;;;;;;5053830;28;20194;-55
2023/11/30 02:59:26;;;;;;;11.30;10.70;;;5.40;20.20;;;;;;5053920;28;20222;-57
2023/11/30 03:01:52;;;;;;;11.20;10.60;;;5.30;21.00;;;;;;5048125;28;20191;-56
2023/11/30 03:04:17;;;;;;;11.20;10.67;;;5.50;21.60;;;;;;5053547;28;20222;-56
2023/11/30 03:06:47;;;;;;;12.10;11.33;;;5.50;20.80;;;;;;5069205;28;20438;-56
2023/11/30 03:09:12;;;;;;;11.13;10.53;;;5.30;21.00;;;;;;5053586;28;20735;-55
2023/11/30 03:11:39;;;;;;;10.90;10.40;;;5.30;20.90;;;;;;5057095;28;20455;-56
2023/11/30 03:14:04;;;;;;;11.33;10.73;;;5.20;20.70;;;;;;5053490;28;20636;-56
2023/11/30 03:16:30;;;;;;;11.23;10.63;;;5.10;21.10;;;;;;5046657;28;20434;-45
2023/11/30 03:18:56;;;;;;;11.70;11.10;;;5.20;20.90;;;;;;5066098;28;20191;-46
2023/11/30 03:21:22;;;;;;;11.40;10.60;;;5.30;21.00;;;;;;5041774;28;20309;-49
2023/11/30 03:23:49;;;;;;;12.50;11.83;;;5.40;21.00;;;;;;5052476;28;20594;-48
2023/11/30 03:26:18;;;;;;;12.10;11.50;;;5.60;21.20;;;;;;5053530;28;20199;-43
2023/11/30 03:28:44;;;;;;;12.47;11.70;;;5.70;20.90;;;;;;5068602;28;20461;-46
2023/11/30 03:31:10;;;;;;;11.83;11.23;;;5.80;20.40;;;;;;5053588;28;20427;-48
2023/11/30 03:33:35;;;;;;;12.40;11.80;;;5.90;19.90;;;;;;5069588;28;20512;-48
2023/11/30 03:36:02;;;;;;;12.40;11.70;;;5.90;19.90;;;;;;5044373;28;20655;-45
2023/11/30 03:38:28;;;;;;;12.90;12.20;;;5.90;20.30;;;;;;5060233;28;20219;-47
2023/11/30 03:40:53;;;;;;;12.00;11.40;;;5.90;20.30;;;;;;5053440;28;20480;-48
2023/11/30 03:43:19;;;;;;;11.60;11.00;;;6.00;20.10;;;;;;5052729;28;20240;-48
2023/11/30 03:45:44;;;;;;;11.30;10.70;;;6.00;20.00;;;;;;5056761;28;20281;-45
2023/11/30 03:48:10;;;;;;;12.57;11.87;;;5.90;20.30;;;;;;5073212;28;20191;-47
2023/11/30 03:50:36;;;;;;;12.73;12.13;;;5.90;20.30;;;;;;5041319;28;20192;-46
2023/11/30 03:53:01;;;;;;;12.70;12.10;;;6.00;20.30;;;;;;5057203;28;20534;-45
2023/11/30 03:55:27;;;;;;;12.20;11.50;;;5.90;20.10;;;;;;5073630;28;20788;-45
2023/11/30 03:57:53;;;;;;;12.20;11.47;;;5.90;19.70;;;;;;5048903;28;20199;-47
2023/11/30 04:00:18;;;;;;;12.30;11.70;;;5.50;20.50;;;;;;5057322;28;20643;-47
2023/11/30 04:02:44;;;;;;;11.63;11.03;;;5.50;21.10;;;;;;5073562;28;20195;-47
2023/11/30 04:05:13;;;;;;;11.77;11.17;;;5.60;21.20;;;;;;5073416;28;20214;-45
2023/11/30 04:07:39;;;;;;;12.20;11.20;;;5.70;21.20;;;;;;5056965;28;20195;-47
2023/11/30 04:10:06;;;;;;;11.50;10.70;;;5.80;21.30;;;;;;5056581;28;20429;-46
2023/11/30 04:12:32;;;;;;;11.00;10.40;;;6.00;20.90;;;;;;5057152;28;20469;-46
2023/11/30 04:14:58;;;;;;;11.20;10.60;;;6.20;20.70;;;;;;5056558;28;20920;-48
2023/11/30 04:17:24;;;;;;;11.77;11.17;;;6.30;20.10;;;;;;5057074;28;20460;-49
2023/11/30 04:19:50;;;;;;;12.43;11.73;;;6.30;19.70;;;;;;5073134;28;20214;-48
2023/11/30 04:22:16;;;;;;;11.70;11.10;;;6.30;19.90;;;;;;5056919;28;20534;-46
2023/11/30 04:24:42;;;;;;;11.70;11.10;;;6.30;19.50;;;;;;5073052;28;20213;-47
2023/11/30 04:27:08;;;;;;;11.40;10.70;;;6.40;19.30;;;;;;5074635;28;20426;-47
2023/11/30 04:29:33;;;;;;;11.97;11.27;;;6.00;20.30;;;;;;5056668;28;20187;-46
2023/11/30 04:32:00;;;;;;;12.27;11.67;;;6.00;20.10;;;;;;5072873;28;20455;-46
2023/11/30 04:34:26;;;;;;;12.20;11.60;;;6.20;20.30;;;;;;5056213;28;20187;-45
2023/11/30 04:36:51;;;;;;;11.60;11.00;;;6.40;20.00;;;;;;5056178;28;20440;-46
2023/11/30 04:39:17;;;;;;;11.30;10.70;;;6.50;19.80;;;;;;5073060;28;20212;-44
2023/11/30 04:41:43;;;;;;;11.20;10.60;;;6.70;19.50;;;;;;5072751;28;20179;-45
2023/11/30 04:44:08;;;;;;;12.00;11.17;;;6.80;19.10;;;;;;5055957;28;20276;-46
2023/11/30 04:46:34;;;;;;;11.60;10.90;;;7.00;18.40;;;;;;5056189;28;20209;-44
2023/11/30 04:49:01;;;;;;;11.60;10.80;;;7.00;18.00;;;;;;5056033;28;20185;-47
2023/11/30 04:51:26;;;;;;;11.20;10.60;;;7.00;18.00;;;;;;5072856;28;20248;-45
2023/11/30 04:53:52;;;;;;;11.80;11.00;;;6.90;18.60;;;;;;5055968;28;20465;-45
2023/11/30 04:56:18;;;;;;;11.67;10.80;;;6.70;18.50;;;;;;5055353;28;20179;-47
2023/11/30 04:58:44;;;;;;;11.57;10.93;;;6.70;19.70;;;;;;5047691;28;20795;-48
2023/11/30 05:01:10;;;;;;;10.80;10.30;;;6.90;19.10;;;;;;5053576;28;20179;-45
2023/11/30 05:03:35;;;;;;;12.47;11.87;;;7.00;18.40;;;;;;5072579;28;20588;-47
2023/11/30 05:06:02;;;;;;;10.60;10.00;;;6.90;18.50;;;;;;5065422;28;20215;-45
2023/11/30 05:08:27;;;;;;;11.20;10.70;;;6.90;18.70;;;;;;5072704;28;20541;-45
2023/11/30 05:10:53;;;;;;;12.40;11.60;;;6.90;18.40;;;;;;5055651;28;20421;-45
2023/11/30 05:13:19;;;;;;;12.47;11.77;;;7.00;18.60;;;;;;5072574;28;20225;-47
2023/11/30 05:15:44;;;;;;;12.70;11.67;;;6.60;18.90;;;;;;5071817;28;20266;-46
2023/11/30 05:18:10;;;;;;;11.77;11.07;;;6.60;19.40;;;;;;5073419;28;20640;-45
2023/11/30 05:20:36;;;;;;;11.90;11.07;;;6.60;19.10;;;;;;5071917;28;20186;-47
2023/11/30 05:23:01;;;;;;;11.73;11.13;;;6.70;19.40;;;;;;5047225;28;20231;-47
